Airfield :
LOGIN :

Register | Disclaimer

   EN    FR    IT 

 










Legend :    VFR   Marginal VFR   IFR   Intensive IFR   Very Intensive IFR
Visi :
Ceiling :
>= 8 km
>= 3000ft
5 to 8 km
1000 to 3000 ft
1500m to 5 km
500 to 1000 ft
800 to 1500m
200 to 500 ft
< 800m
< 200 ft
Symbols :   Thunderstorms  Fog  Heavy snow  Heavy precipitations  Wind > 20 kt
SIGMETs :     Misc.  Thunderstorms  Icing  Turbulence  Mountain Waves  Volcanic Ashes







- Airport Elevation : 412 ft
- IATA code : ADB


LTBJ - Adnan Menderes

CURRENT METAR :
  • 130450Z 35020KT CAVOK 13/04 Q1022 NOSIG

EXPIRED METARs :
  • 130420Z 35023KT CAVOK 13/04 Q1021 NOSIG
  • 130350Z 35021KT CAVOK 12/05 Q1021 NOSIG
  • 130320Z 36020KT CAVOK 13/05 Q1022 NOSIG
  • 130250Z 35015KT CAVOK 13/06 Q1022 NOSIG
  • 130220Z VRB03KT CAVOK 11/06 Q1022 NOSIG RMK RWY16 35018KT

TAF TAF LTBJ
Valid from the 13 at 00:00 until the 14 at 00:00 UTC


122240Z 1300/1324 36012KT CAVOK
BECMG 1307/1309 01016G27KT
BECMG 1319/1322 36012KT
No reported NOTAMs for that airfield.



MET'MAP, your aeronautical weather chart ! - Copyright ORBIFLY December 2007 - Disclaimer

ORBIFLY MET'MAP TEAM :

Programming & Development : Alexandra Zaïnal
Concept & Development : Baudouin d'Aumeries
Co-Development & Prog : Marc-Olivier Méhu
Technical & hardware support : Manuel Goepfert

Contact : metmap@orbifly.com




SOURCES & CREDITS :

   NOAA